createdAt,value
2022-11-30T00:01:50.152Z,7.50
2022-11-30T00:04:18.007Z,7.50
2022-11-30T00:06:47.232Z,7.50
2022-11-30T00:09:15.077Z,7.50
2022-11-30T00:11:42.950Z,7.50
2022-11-30T00:14:10.801Z,7.50
2022-11-30T00:16:38.729Z,7.40
2022-11-30T00:19:06.594Z,7.40
2022-11-30T00:21:34.437Z,7.40
2022-11-30T00:24:03.661Z,7.50
2022-11-30T00:26:31.715Z,7.60
2022-11-30T00:28:59.572Z,7.50
2022-11-30T00:31:27.438Z,7.40
2022-11-30T00:33:55.292Z,7.60
2022-11-30T00:36:23.783Z,7.60
2022-11-30T00:38:52.765Z,7.50
2022-11-30T00:41:22.143Z,7.40
2022-11-30T00:43:50.506Z,7.40
2022-11-30T00:46:18.659Z,7.30
2022-11-30T00:48:46.905Z,7.30
2022-11-30T00:51:15.172Z,7.20
2022-11-30T00:53:43.730Z,7.20
2022-11-30T00:56:12.054Z,7.20
2022-11-30T00:58:41.698Z,7.20
2022-11-30T01:01:10.035Z,7.20
2022-11-30T01:03:38.292Z,7.20
2022-11-30T01:06:07.507Z,7.10
2022-11-30T01:08:35.842Z,7.10
2022-11-30T01:11:09.568Z,7.10
2022-11-30T01:13:37.433Z,7.10
2022-11-30T01:16:12.470Z,7.00
2022-11-30T01:18:40.435Z,7.00
2022-11-30T01:21:09.191Z,7.00
2022-11-30T01:23:37.403Z,7.00
2022-11-30T01:26:05.267Z,7.00
2022-11-30T01:28:33.147Z,7.00
2022-11-30T01:31:02.600Z,7.00
2022-11-30T01:33:32.013Z,7.10
2022-11-30T01:36:01.648Z,7.10
2022-11-30T01:38:33.289Z,7.10
2022-11-30T01:41:01.167Z,7.10
2022-11-30T01:43:39.600Z,7.10
2022-11-30T01:46:18.394Z,7.00
2022-11-30T01:48:52.091Z,7.00
2022-11-30T01:51:20.151Z,7.00
2022-11-30T01:53:48.356Z,7.10
2022-11-30T01:56:17.672Z,7.10
2022-11-30T01:58:45.790Z,7.20
2022-11-30T02:01:13.701Z,7.20
2022-11-30T02:03:47.264Z,7.10
2022-11-30T02:06:16.694Z,7.10
2022-11-30T02:08:44.945Z,7.10
2022-11-30T02:11:15.542Z,7.10
2022-11-30T02:13:57.691Z,7.10
2022-11-30T02:16:31.618Z,7.00
2022-11-30T02:19:11.623Z,7.00
2022-11-30T02:21:47.152Z,7.00
2022-11-30T02:24:38.036Z,6.90
2022-11-30T02:27:19.539Z,6.90
2022-11-30T02:29:54.311Z,6.90
2022-11-30T02:32:27.013Z,6.90
2022-11-30T02:34:57.694Z,6.90
2022-11-30T02:37:26.836Z,6.90
2022-11-30T02:39:54.675Z,6.90
2022-11-30T02:42:22.816Z,6.90
2022-11-30T02:44:54.475Z,7.00
2022-11-30T02:47:28.474Z,7.10
2022-11-30T02:50:01.184Z,7.30
2022-11-30T02:52:31.069Z,7.20
2022-11-30T02:55:02.617Z,7.30
2022-11-30T02:57:30.853Z,7.30
2022-11-30T03:00:01.593Z,7.30
2022-11-30T03:02:29.473Z,7.30
2022-11-30T03:04:57.339Z,7.30
2022-11-30T03:07:25.269Z,7.30
2022-11-30T03:09:53.151Z,7.40
2022-11-30T03:12:21.038Z,7.50
2022-11-30T03:14:49.204Z,7.50
2022-11-30T03:17:18.844Z,7.50
2022-11-30T03:19:46.716Z,7.50
2022-11-30T03:22:14.592Z,7.60
2022-11-30T03:24:42.462Z,7.60
2022-11-30T03:27:10.323Z,7.60
2022-11-30T03:29:38.324Z,7.50
2022-11-30T03:32:06.756Z,7.40
2022-11-30T03:34:36.120Z,7.30
2022-11-30T03:37:04.059Z,7.30
2022-11-30T03:39:31.928Z,7.30
2022-11-30T03:41:59.779Z,7.30
2022-11-30T03:44:27.643Z,7.30
2022-11-30T03:46:55.531Z,7.30
2022-11-30T03:49:23.387Z,7.20
2022-11-30T03:51:52.601Z,7.20
2022-11-30T03:54:21.643Z,7.20
2022-11-30T03:56:49.522Z,7.20
2022-11-30T03:59:17.400Z,7.20
2022-11-30T04:01:45.303Z,7.10
2022-11-30T04:04:13.615Z,7.10
2022-11-30T04:06:41.570Z,7.10
2022-11-30T04:09:12.023Z,7.10
2022-11-30T04:11:39.883Z,7.10
2022-11-30T04:14:07.835Z,7.10
2022-11-30T04:16:35.720Z,7.10
2022-11-30T04:19:03.722Z,7.00
2022-11-30T04:21:31.717Z,7.00
2022-11-30T04:23:59.563Z,7.00
2022-11-30T04:26:28.759Z,7.00
2022-11-30T04:28:56.996Z,6.90
2022-11-30T04:31:24.898Z,6.90
2022-11-30T04:33:54.706Z,6.90
2022-11-30T04:36:22.928Z,6.90
2022-11-30T04:38:50.947Z,6.90
2022-11-30T04:41:18.801Z,6.90
2022-11-30T04:43:48.052Z,6.90
2022-11-30T04:46:16.000Z,7.20
2022-11-30T04:48:43.927Z,7.30
2022-11-30T04:51:11.778Z,7.30
2022-11-30T04:53:39.740Z,7.20
2022-11-30T04:56:08.496Z,7.20
2022-11-30T04:58:38.620Z,7.10
2022-11-30T05:01:08.624Z,7.00
2022-11-30T05:03:36.592Z,6.90
2022-11-30T05:06:05.141Z,6.80
2022-11-30T05:08:33.038Z,6.80
2022-11-30T05:11:00.930Z,6.70
2022-11-30T05:13:28.961Z,6.60
2022-11-30T05:15:56.926Z,6.60
2022-11-30T05:18:26.314Z,6.50
2022-11-30T05:20:54.479Z,6.50
2022-11-30T05:23:23.016Z,6.60
2022-11-30T05:25:51.055Z,6.80
2022-11-30T05:28:18.954Z,6.70
2022-11-30T05:30:46.853Z,6.60
2022-11-30T05:33:14.733Z,6.50
2022-11-30T05:35:44.511Z,6.60
2022-11-30T05:38:12.443Z,6.50
2022-11-30T05:40:40.300Z,6.40
2022-11-30T05:43:08.151Z,6.30
2022-11-30T05:45:36.057Z,6.40
2022-11-30T05:48:03.937Z,6.30
2022-11-30T05:50:31.827Z,6.30
2022-11-30T05:53:01.279Z,6.30
2022-11-30T05:55:31.014Z,6.30
2022-11-30T05:57:58.912Z,6.30
2022-11-30T06:00:26.905Z,6.40
2022-11-30T06:02:58.317Z,6.40
2022-11-30T06:05:26.616Z,6.50
2022-11-30T06:07:54.609Z,6.40
2022-11-30T06:10:25.284Z,6.40
2022-11-30T06:12:53.182Z,6.40
2022-11-30T06:15:21.061Z,6.40
2022-11-30T06:17:48.897Z,6.40
2022-11-30T06:20:17.112Z,6.40
2022-11-30T06:22:46.671Z,6.40
2022-11-30T06:25:14.936Z,6.40
2022-11-30T06:27:44.552Z,6.30
2022-11-30T06:30:13.668Z,6.30
2022-11-30T06:32:41.527Z,6.30
2022-11-30T06:35:09.980Z,6.30
2022-11-30T06:37:38.015Z,6.40
2022-11-30T06:40:08.187Z,6.40
2022-11-30T06:42:37.247Z,6.40
2022-11-30T06:45:07.767Z,6.40
2022-11-30T06:47:35.891Z,6.40
2022-11-30T06:50:03.923Z,6.50
2022-11-30T06:52:32.529Z,6.50
2022-11-30T06:55:00.398Z,6.60
2022-11-30T06:57:29.098Z,6.70
2022-11-30T06:59:57.475Z,6.90
2022-11-30T07:02:26.696Z,6.80
2022-11-30T07:04:54.668Z,6.70
2022-11-30T07:07:22.610Z,6.80
2022-11-30T07:09:50.957Z,6.90
2022-11-30T07:12:19.093Z,6.90
2022-11-30T07:14:47.237Z,6.90
2022-11-30T07:17:15.354Z,7.00
2022-11-30T07:19:44.561Z,7.00
2022-11-30T07:22:12.457Z,6.90
2022-11-30T07:24:57.888Z,6.90
2022-11-30T07:27:25.918Z,6.90
2022-11-30T07:29:53.819Z,6.90
2022-11-30T07:32:21.670Z,6.90
2022-11-30T07:34:50.975Z,7.00
2022-11-30T07:37:19.168Z,7.10
2022-11-30T07:39:47.004Z,7.20
2022-11-30T07:42:14.889Z,7.20
2022-11-30T07:44:42.742Z,7.20
2022-11-30T07:47:10.775Z,7.20
2022-11-30T07:49:39.727Z,7.20
2022-11-30T07:52:09.084Z,7.30
2022-11-30T07:54:36.927Z,7.20
2022-11-30T07:57:04.852Z,7.20
2022-11-30T07:59:32.720Z,7.30
2022-11-30T08:02:01.540Z,7.30
2022-11-30T08:04:29.530Z,7.30
2022-11-30T08:06:57.451Z,7.20
2022-11-30T08:09:26.713Z,7.30
2022-11-30T08:11:54.572Z,7.30
2022-11-30T08:14:22.410Z,7.20
2022-11-30T08:16:50.298Z,7.30
2022-11-30T08:19:18.187Z,7.30
2022-11-30T08:21:46.052Z,7.30
2022-11-30T08:24:14.780Z,7.30
2022-11-30T08:26:44.091Z,7.30
2022-11-30T08:29:12.203Z,7.30
2022-11-30T08:31:40.587Z,7.30
2022-11-30T08:34:11.086Z,7.30
2022-11-30T08:36:40.309Z,7.30
2022-11-30T08:39:09.728Z,7.30
2022-11-30T08:41:39.077Z,7.40
2022-11-30T08:44:08.597Z,7.40
2022-11-30T08:46:53.401Z,7.40
2022-11-30T08:52:18.456Z,7.40
2022-11-30T08:54:48.561Z,7.40
2022-11-30T08:57:17.675Z,7.40
2022-11-30T08:59:47.339Z,7.30
2022-11-30T09:02:18.243Z,7.40
2022-11-30T09:04:47.586Z,7.40
2022-11-30T09:07:15.569Z,7.40
2022-11-30T09:09:43.451Z,7.40
2022-11-30T09:12:11.332Z,7.50
2022-11-30T09:14:39.192Z,7.60
2022-11-30T09:17:08.382Z,7.50
2022-11-30T09:19:36.231Z,7.60
2022-11-30T09:22:04.096Z,7.60
2022-11-30T09:24:31.967Z,7.70
2022-11-30T09:26:59.825Z,7.70
2022-11-30T09:29:27.912Z,7.80
2022-11-30T09:31:55.805Z,7.90
2022-11-30T09:34:25.006Z,7.90
2022-11-30T09:36:52.885Z,7.90
2022-11-30T09:39:20.756Z,7.90
2022-11-30T09:42:24.426Z,7.80
2022-11-30T09:45:01.086Z,7.80
2022-11-30T09:47:39.913Z,7.90
2022-11-30T09:50:15.505Z,7.90
2022-11-30T09:52:47.424Z,7.80
2022-11-30T09:55:23.838Z,7.90
2022-11-30T09:57:54.450Z,7.90
2022-11-30T10:00:24.526Z,7.90
2022-11-30T10:02:54.888Z,8.00
2022-11-30T10:05:28.249Z,8.10
2022-11-30T10:08:17.977Z,8.10
2022-11-30T10:10:53.098Z,8.10
2022-11-30T10:13:40.264Z,8.10
2022-11-30T10:16:17.787Z,8.10
2022-11-30T10:18:57.346Z,8.10
2022-11-30T10:21:40.464Z,8.10
2022-11-30T10:24:18.110Z,8.20
2022-11-30T10:26:53.885Z,8.20
2022-11-30T10:29:28.192Z,8.20
2022-11-30T10:31:59.888Z,8.20
2022-11-30T10:34:33.555Z,8.20
2022-11-30T10:37:11.118Z,8.20
2022-11-30T10:39:44.456Z,8.20
2022-11-30T10:42:18.918Z,8.20
2022-11-30T10:44:54.732Z,8.20
2022-11-30T10:47:27.215Z,8.20
2022-11-30T10:49:55.215Z,8.30
2022-11-30T10:52:28.103Z,8.20
2022-11-30T10:55:03.675Z,8.30
2022-11-30T10:57:34.046Z,8.30
2022-11-30T11:00:06.442Z,8.30
2022-11-30T11:02:41.260Z,8.40
2022-11-30T11:05:16.493Z,8.40
2022-11-30T11:07:51.846Z,8.40
2022-11-30T11:10:22.486Z,8.40
2022-11-30T11:12:52.818Z,8.50
2022-11-30T11:15:23.825Z,8.50
2022-11-30T11:17:52.644Z,8.60
2022-11-30T11:20:33.022Z,8.60
2022-11-30T11:23:03.863Z,8.70
2022-11-30T11:25:37.281Z,8.70
2022-11-30T11:28:09.625Z,8.80
2022-11-30T11:30:38.522Z,8.70
2022-11-30T11:33:20.360Z,8.70
2022-11-30T11:35:50.477Z,8.60
2022-11-30T11:38:26.142Z,8.70
2022-11-30T11:40:57.814Z,8.70
2022-11-30T11:43:28.432Z,8.70
2022-11-30T11:45:58.841Z,8.70
2022-11-30T11:48:37.011Z,8.80
2022-11-30T11:51:08.090Z,8.80
2022-11-30T11:53:47.411Z,9.00
2022-11-30T11:56:23.840Z,9.00
2022-11-30T11:58:57.429Z,9.10
2022-11-30T12:01:44.548Z,9.20
2022-11-30T12:04:40.930Z,9.20
2022-11-30T12:07:19.180Z,9.30
2022-11-30T12:10:35.573Z,9.30
2022-11-30T12:13:00.574Z,9.60
2022-11-30T12:15:34.967Z,10.00
2022-11-30T12:18:15.108Z,10.20
2022-11-30T12:20:54.496Z,10.30
2022-11-30T12:23:49.924Z,10.40
2022-11-30T12:26:27.953Z,10.40
2022-11-30T12:29:17.139Z,10.30
2022-11-30T12:31:56.816Z,10.30
2022-11-30T12:34:38.764Z,10.30
2022-11-30T12:37:14.849Z,10.30
2022-11-30T12:39:50.797Z,10.40
2022-11-30T12:42:26.551Z,10.30
2022-11-30T12:45:01.951Z,10.30
2022-11-30T12:47:43.504Z,10.30
2022-11-30T12:50:34.317Z,10.10
2022-11-30T12:53:14.427Z,10.00
2022-11-30T12:55:49.331Z,9.90
2022-11-30T12:58:30.123Z,10.00
2022-11-30T13:01:11.101Z,10.10
2022-11-30T13:03:54.559Z,10.20
2022-11-30T13:06:27.493Z,10.20
2022-11-30T13:09:02.213Z,10.20
2022-11-30T13:11:35.935Z,10.20
2022-11-30T13:14:10.460Z,10.10
2022-11-30T13:16:39.251Z,10.10
2022-11-30T13:19:21.727Z,9.90
2022-11-30T13:21:54.925Z,9.80
2022-11-30T13:24:28.825Z,9.70
2022-11-30T13:27:01.815Z,9.50
2022-11-30T13:29:51.553Z,9.40
2022-11-30T13:32:56.028Z,9.30
2022-11-30T13:35:42.519Z,9.30
2022-11-30T13:41:09.358Z,9.30
2022-11-30T13:43:41.826Z,9.30
2022-11-30T13:46:20.117Z,9.20
2022-11-30T13:48:48.452Z,9.10
2022-11-30T13:51:36.074Z,9.10
2022-11-30T13:54:38.084Z,9.10
2022-11-30T13:57:15.839Z,9.20
2022-11-30T13:59:48.266Z,9.20
2022-11-30T14:02:55.195Z,9.20
2022-11-30T14:05:25.944Z,9.10
2022-11-30T14:08:14.496Z,9.10
2022-11-30T14:10:43.722Z,9.10
2022-11-30T14:13:32.168Z,9.10
2022-11-30T14:16:01.635Z,9.10
2022-11-30T14:18:44.908Z,9.00
2022-11-30T14:21:20.814Z,9.00
2022-11-30T14:23:55.262Z,9.10
2022-11-30T14:26:28.436Z,9.10
2022-11-30T14:29:03.226Z,9.10
2022-11-30T14:31:37.706Z,9.10
2022-11-30T14:34:15.524Z,9.10
2022-11-30T14:36:47.625Z,9.10
2022-11-30T14:39:27.565Z,9.00
2022-11-30T14:41:55.587Z,9.00
2022-11-30T14:44:23.559Z,9.00
2022-11-30T14:46:51.846Z,8.90
2022-11-30T14:49:22.879Z,9.00
2022-11-30T14:51:53.677Z,9.00
2022-11-30T14:54:47.085Z,9.00
2022-11-30T14:57:23.563Z,8.90
2022-11-30T14:59:53.685Z,8.90
2022-11-30T15:02:30.453Z,8.90
2022-11-30T15:05:00.694Z,8.90
2022-11-30T15:07:30.169Z,8.90
2022-11-30T15:10:03.585Z,8.90
2022-11-30T15:12:31.731Z,8.80
2022-11-30T15:15:04.006Z,8.80
2022-11-30T15:17:32.144Z,8.80
2022-11-30T15:20:01.413Z,8.80
2022-11-30T15:22:35.816Z,8.70
2022-11-30T15:25:03.887Z,8.80
2022-11-30T15:27:32.041Z,8.70
2022-11-30T15:30:01.772Z,8.70
2022-11-30T15:32:30.019Z,9.00
2022-11-30T15:35:00.833Z,9.00
2022-11-30T15:37:32.714Z,8.90
2022-11-30T15:40:02.992Z,8.80
2022-11-30T15:42:39.753Z,8.70
2022-11-30T15:45:18.489Z,8.70
2022-11-30T15:47:46.402Z,8.60
2022-11-30T15:50:36.024Z,8.60
2022-11-30T15:53:32.281Z,8.50
2022-11-30T15:56:03.089Z,8.50
2022-11-30T15:58:39.588Z,8.60
2022-11-30T16:01:11.429Z,8.60
2022-11-30T16:04:01.695Z,8.50
2022-11-30T16:06:31.837Z,8.50
2022-11-30T16:09:06.334Z,8.50
2022-11-30T16:11:37.907Z,8.50
2022-11-30T16:14:05.829Z,8.50
2022-11-30T16:16:34.039Z,8.50
2022-11-30T16:19:01.973Z,8.50
2022-11-30T16:21:29.845Z,8.50
2022-11-30T16:23:57.734Z,8.50
2022-11-30T16:26:49.942Z,8.40
2022-11-30T16:29:14.809Z,8.30
2022-11-30T16:31:42.824Z,8.30
2022-11-30T16:34:12.795Z,8.30
2022-11-30T16:36:40.672Z,8.30
2022-11-30T16:39:12.198Z,8.30
2022-11-30T16:41:41.566Z,8.20
2022-11-30T16:44:14.184Z,8.10
2022-11-30T16:46:42.382Z,8.10
2022-11-30T16:49:10.353Z,8.00
2022-11-30T16:51:38.460Z,8.00
2022-11-30T16:54:06.610Z,8.10
2022-11-30T16:56:34.479Z,8.10
2022-11-30T16:59:03.686Z,8.20
2022-11-30T17:01:36.116Z,8.10
2022-11-30T17:04:08.821Z,8.10
2022-11-30T17:06:36.728Z,8.10
2022-11-30T17:09:04.841Z,8.20
2022-11-30T17:11:35.980Z,8.20
2022-11-30T17:14:05.562Z,8.20
2022-11-30T17:16:33.907Z,8.20
2022-11-30T17:19:01.898Z,8.20
2022-11-30T17:21:33.643Z,8.10
2022-11-30T17:24:01.554Z,8.10
2022-11-30T17:26:30.275Z,8.10
2022-11-30T17:28:58.220Z,8.00
2022-11-30T17:31:27.537Z,8.00
2022-11-30T17:33:55.518Z,7.90
2022-11-30T17:36:23.494Z,8.00
2022-11-30T17:38:51.364Z,7.90
2022-11-30T17:41:21.872Z,7.80
2022-11-30T17:43:50.341Z,8.00
2022-11-30T17:46:19.641Z,7.90
2022-11-30T17:48:49.656Z,7.90
2022-11-30T17:51:17.632Z,7.90
2022-11-30T17:53:45.610Z,7.90
2022-11-30T17:56:15.950Z,7.80
2022-11-30T17:58:45.469Z,7.80
2022-11-30T18:01:18.411Z,7.80
2022-11-30T18:03:48.155Z,7.80
2022-11-30T18:06:16.714Z,7.70
2022-11-30T18:08:44.999Z,7.70
2022-11-30T18:11:14.535Z,7.80
2022-11-30T18:13:42.795Z,7.70
2022-11-30T18:16:13.448Z,7.70
2022-11-30T18:18:47.136Z,7.80
2022-11-30T18:21:19.012Z,7.80
2022-11-30T18:23:47.001Z,7.80
2022-11-30T18:26:16.726Z,7.70
2022-11-30T18:28:45.119Z,7.70
2022-11-30T18:31:13.223Z,7.80
2022-11-30T18:33:41.310Z,7.80
2022-11-30T18:36:10.166Z,7.80
2022-11-30T18:38:41.444Z,7.70
2022-11-30T18:41:09.528Z,7.70
2022-11-30T18:43:38.738Z,7.70
2022-11-30T18:46:08.685Z,7.80
2022-11-30T18:48:37.654Z,7.70
2022-11-30T18:51:12.500Z,7.70
2022-11-30T18:53:42.490Z,7.70
2022-11-30T18:56:13.060Z,7.60
2022-11-30T18:58:41.211Z,7.70
2022-11-30T19:01:10.094Z,7.60
2022-11-30T19:03:38.552Z,7.60
2022-11-30T19:06:07.879Z,7.60
2022-11-30T19:08:36.072Z,7.70
2022-11-30T19:11:07.073Z,7.60
2022-11-30T19:13:35.245Z,7.60
2022-11-30T19:16:04.007Z,7.60
2022-11-30T19:18:32.639Z,7.60
2022-11-30T19:21:00.852Z,7.70
2022-11-30T19:23:29.007Z,7.60
2022-11-30T19:26:01.655Z,7.60
2022-11-30T19:28:32.006Z,7.60
2022-11-30T19:31:00.759Z,7.60
2022-11-30T19:33:29.072Z,7.70
2022-11-30T19:36:01.553Z,7.70
2022-11-30T19:38:29.475Z,7.70
2022-11-30T19:40:57.388Z,7.80
2022-11-30T19:43:25.350Z,7.90
2022-11-30T19:45:54.578Z,7.80
2022-11-30T19:48:22.506Z,7.80
2022-11-30T19:50:50.346Z,7.70
2022-11-30T19:53:18.203Z,7.80
2022-11-30T19:55:46.060Z,7.80
2022-11-30T19:58:13.960Z,7.70
2022-11-30T20:00:41.845Z,7.60
2022-11-30T20:03:11.107Z,7.60
2022-11-30T20:05:39.338Z,7.60
2022-11-30T20:08:07.729Z,7.60
2022-11-30T20:10:35.649Z,7.50
2022-11-30T20:13:03.515Z,7.50
2022-11-30T20:15:31.432Z,7.50
2022-11-30T20:17:59.339Z,7.50
2022-11-30T20:20:28.574Z,7.40
2022-11-30T20:22:56.466Z,7.50
2022-11-30T20:25:24.366Z,7.40
2022-11-30T20:27:52.295Z,7.40
2022-11-30T20:30:20.362Z,7.50
2022-11-30T20:32:48.258Z,7.50
2022-11-30T20:35:16.271Z,7.50
2022-11-30T20:37:45.506Z,7.60
2022-11-30T20:40:13.758Z,7.70
2022-11-30T20:42:41.756Z,7.70
2022-11-30T20:45:09.947Z,7.60
2022-11-30T20:47:37.803Z,7.60
2022-11-30T20:50:07.049Z,7.60
2022-11-30T20:52:35.263Z,7.60
2022-11-30T20:55:04.549Z,7.60
2022-11-30T20:57:32.434Z,7.60
2022-11-30T21:00:00.291Z,7.60
2022-11-30T21:02:28.226Z,7.50
2022-11-30T21:04:56.130Z,7.50
2022-11-30T21:07:24.091Z,7.60
2022-11-30T21:09:52.316Z,7.60
2022-11-30T21:12:21.532Z,7.60
2022-11-30T21:14:49.704Z,7.60
2022-11-30T21:17:17.720Z,7.60
2022-11-30T21:19:45.602Z,7.50
2022-11-30T21:22:13.475Z,7.50
2022-11-30T21:24:41.359Z,7.50
2022-11-30T21:27:09.369Z,7.50
2022-11-30T21:29:38.587Z,7.50
2022-11-30T21:32:06.604Z,7.50
2022-11-30T21:34:34.541Z,7.50
2022-11-30T21:37:02.437Z,7.40
2022-11-30T21:39:31.055Z,7.30
2022-11-30T21:41:59.032Z,7.40
2022-11-30T21:44:26.896Z,7.40
2022-11-30T21:46:56.166Z,7.40
2022-11-30T21:49:24.438Z,7.30
2022-11-30T21:51:52.347Z,7.30
2022-11-30T21:54:20.320Z,7.20
2022-11-30T21:56:52.236Z,7.30
2022-11-30T21:59:20.371Z,7.30
2022-11-30T22:01:48.255Z,7.30
2022-11-30T22:04:17.655Z,7.20
2022-11-30T22:06:45.936Z,7.30
2022-11-30T22:09:15.775Z,7.40
2022-11-30T22:11:45.537Z,7.30
2022-11-30T22:14:15.576Z,7.20
2022-11-30T22:16:43.974Z,7.30
2022-11-30T22:19:11.913Z,7.30
2022-11-30T22:21:45.367Z,7.30
2022-11-30T22:24:16.297Z,7.40
2022-11-30T22:26:45.360Z,7.30
2022-11-30T22:29:15.373Z,7.40
2022-11-30T22:31:45.224Z,7.40
2022-11-30T22:34:13.248Z,7.50
2022-11-30T22:36:44.067Z,7.50
2022-11-30T22:39:13.856Z,7.40
2022-11-30T22:41:43.308Z,7.50
2022-11-30T22:44:13.503Z,7.40
2022-11-30T22:46:41.528Z,7.30
2022-11-30T22:49:15.884Z,7.30
2022-11-30T22:51:48.019Z,7.30
2022-11-30T22:54:16.075Z,7.20
2022-11-30T22:56:46.160Z,7.20
2022-11-30T22:59:15.199Z,7.20
2022-11-30T23:01:44.800Z,7.20
2022-11-30T23:04:14.552Z,7.30
2022-11-30T23:06:44.163Z,7.30
2022-11-30T23:09:16.130Z,7.30
2022-11-30T23:11:44.597Z,7.30
2022-11-30T23:14:13.093Z,7.40
2022-11-30T23:16:41.432Z,7.30
2022-11-30T23:19:10.114Z,7.30
2022-11-30T23:21:41.674Z,7.30
2022-11-30T23:24:14.336Z,7.30
2022-11-30T23:26:44.079Z,7.20
2022-11-30T23:29:14.014Z,7.30
2022-11-30T23:31:43.211Z,7.20
2022-11-30T23:34:13.471Z,7.10
2022-11-30T23:36:41.376Z,7.10
2022-11-30T23:39:11.783Z,7.20
2022-11-30T23:41:40.394Z,7.20
2022-11-30T23:44:10.093Z,7.20
2022-11-30T23:46:38.279Z,7.20
2022-11-30T23:49:06.466Z,7.30
2022-11-30T23:51:34.331Z,7.20
2022-11-30T23:54:02.253Z,7.20
2022-11-30T23:56:30.111Z,7.30
2022-11-30T23:58:58.161Z,7.30
